Aviation Digital Data Service (ADDS)

Output produced by METARs form (1850 UTC 25 September 2020)
found at http://www.aviationweather.gov/metar/data/
 
METAR text: EKAH 251820Z AUTO 33004KT 6000NDV -RA OVC005/// 13/13 Q0994
Conditions at: EKAH (TIRSTRUP (CIV/MI, DK) observed 1820 UTC 25 September 2020
Temperature: 13.0°C (55°F)
Dewpoint: 13.0°C (55°F) [RH = 100%]
Pressure (altimeter): 29.35 inches Hg (994.0 mb)
Winds: from the NNW (330 degrees) at 5 MPH (4 knots; 2.1 m/s)
Visibility: missing
Ceiling: 500 feet AGL
Clouds: overcast cloud deck at 500 feet AGL
Weather: -RA  (light rain)

METAR text: EKAH 251750Z AUTO 35006KT 320V030 6000NDV DZ OVC005/// 13/13 Q0994
Conditions at: EKAH (TIRSTRUP (CIV/MI, DK) observed 1750 UTC 25 September 2020
Temperature: 13.0°C (55°F)
Dewpoint: 13.0°C (55°F) [RH = 100%]
Pressure (altimeter): 29.35 inches Hg (994.0 mb)
Winds: from the N (350 degrees) at 7 MPH (6 knots; 3.1 m/s)
Visibility: missing
Ceiling: 500 feet AGL
Clouds: overcast cloud deck at 500 feet AGL
Weather: DZ  (moderate drizzle)

METAR text: EKAH 251720Z AUTO 35006KT 8000NDV DZ OVC004/// 13/13 Q0994
Conditions at: EKAH (TIRSTRUP (CIV/MI, DK) observed 1720 UTC 25 September 2020
Temperature: 13.0°C (55°F)
Dewpoint: 13.0°C (55°F) [RH = 100%]
Pressure (altimeter): 29.35 inches Hg (994.0 mb)
Winds: from the N (350 degrees) at 7 MPH (6 knots; 3.1 m/s)
Visibility: missing
Ceiling: 400 feet AGL
Clouds: overcast cloud deck at 400 feet AGL
Weather: DZ  (moderate drizzle)

METAR text: EKAH 251650Z AUTO 35007KT 9000NDV DZ BKN005/// 13/12 Q0995
Conditions at: EKAH (TIRSTRUP (CIV/MI, DK) observed 1650 UTC 25 September 2020
Temperature: 13.0°C (55°F)
Dewpoint: 12.0°C (54°F) [RH = 94%]
Pressure (altimeter): 29.38 inches Hg (995.0 mb)
Winds: from the N (350 degrees) at 8 MPH (7 knots; 3.6 m/s)
Visibility: missing
Ceiling: 500 feet AGL
Clouds: broken clouds at 500 feet AGL
Weather: DZ  (moderate drizzle)

METAR text: EKAH 251620Z AUTO 35008KT 5000NDV RA BKN007/// 13/12 Q0995
Conditions at: EKAH (TIRSTRUP (CIV/MI, DK) observed 1620 UTC 25 September 2020
Temperature: 13.0°C (55°F)
Dewpoint: 12.0°C (54°F) [RH = 94%]
Pressure (altimeter): 29.38 inches Hg (995.0 mb)
Winds: from the N (350 degrees) at 9 MPH (8 knots; 4.1 m/s)
Visibility: missing
Ceiling: 700 feet AGL
Clouds: broken clouds at 700 feet AGL
Weather: RA  (moderate rain)

METAR text: EKAH 251550Z AUTO 36008KT 5000NDV +DZ BKN009/// 12/12 Q0995
Conditions at: EKAH (TIRSTRUP (CIV/MI, DK) observed 1550 UTC 25 September 2020
Temperature: 12.0°C (54°F)
Dewpoint: 12.0°C (54°F) [RH = 100%]
Pressure (altimeter): 29.38 inches Hg (995.0 mb)
Winds: from the N (360 degrees) at 9 MPH (8 knots; 4.1 m/s)
Visibility: missing
Ceiling: 900 feet AGL
Clouds: broken clouds at 900 feet AGL
Weather: +DZ  (heavy drizzle)

METAR text: EKAH 251520Z AUTO 36008KT 320V020 9000NDV -SHRA FEW014/// BKN026/// 12/11 Q0995
Conditions at: EKAH (TIRSTRUP (CIV/MI, DK) observed 1520 UTC 25 September 2020
Temperature: 12.0°C (54°F)
Dewpoint: 11.0°C (52°F) [RH = 94%]
Pressure (altimeter): 29.38 inches Hg (995.0 mb)
Winds: from the N (360 degrees) at 9 MPH (8 knots; 4.1 m/s)
Visibility: missing
Ceiling: 2600 feet AGL
Clouds: few clouds at 1400 feet AGL
broken clouds at 2600 feet AGL
Weather: -SHRA  (light rain showers)

METAR text: EKAH 251450Z AUTO 01008KT 330V050 9999NDV -SHRA FEW012/// BKN030/// 13/12 Q0996
Conditions at: EKAH (TIRSTRUP (CIV/MI, DK) observed 1450 UTC 25 September 2020
Temperature: 13.0°C (55°F)
Dewpoint: 12.0°C (54°F) [RH = 94%]
Pressure (altimeter): 29.41 inches Hg (996.0 mb)
Winds: from the N (10 degrees) at 9 MPH (8 knots; 4.1 m/s)
Visibility: missing
Ceiling: 3000 feet AGL
Clouds: few clouds at 1200 feet AGL
broken clouds at 3000 feet AGL
Weather: -SHRA  (light rain showers)

METAR text: EKAH 251420Z AUTO 02011KT 350V050 9999NDV DZ FEW009/// BKN034/// 13/12 Q0996
Conditions at: EKAH (TIRSTRUP (CIV/MI, DK) observed 1420 UTC 25 September 2020
Temperature: 13.0°C (55°F)
Dewpoint: 12.0°C (54°F) [RH = 94%]
Pressure (altimeter): 29.41 inches Hg (996.0 mb)
Winds: from the NNE (20 degrees) at 13 MPH (11 knots; 5.7 m/s)
Visibility: missing
Ceiling: 3400 feet AGL
Clouds: few clouds at 900 feet AGL
broken clouds at 3400 feet AGL
Weather: DZ  (moderate drizzle)

METAR text: EKAH 251350Z AUTO 02009KT 340V060 9999NDV DZ SCT007/// BKN042/// 13/12 Q0996
Conditions at: EKAH (TIRSTRUP (CIV/MI, DK) observed 1350 UTC 25 September 2020
Temperature: 13.0°C (55°F)
Dewpoint: 12.0°C (54°F) [RH = 94%]
Pressure (altimeter): 29.41 inches Hg (996.0 mb)
Winds: from the NNE (20 degrees) at 10 MPH (9 knots; 4.6 m/s)
Visibility: missing
Ceiling: 4200 feet AGL
Clouds: scattered clouds at 700 feet AGL
broken clouds at 4200 feet AGL
Weather: DZ  (moderate drizzle)

METAR text: EKAH 251320Z AUTO 04010KT 020V080 9999NDV -RA BKN005/// BKN052/// BKN057/// 13/12 Q0996
Conditions at: EKAH (TIRSTRUP (CIV/MI, DK) observed 1320 UTC 25 September 2020
Temperature: 13.0°C (55°F)
Dewpoint: 12.0°C (54°F) [RH = 94%]
Pressure (altimeter): 29.41 inches Hg (996.0 mb)
Winds: from the NE (40 degrees) at 12 MPH (10 knots; 5.1 m/s)
Visibility: missing
Ceiling: 500 feet AGL
Clouds: broken clouds at 500 feet AGL
broken clouds at 5200 feet AGL
broken clouds at 5700 feet AGL
Weather: -RA  (light rain)

METAR text: EKAH 251250Z AUTO 05016KT 8000NDV RA FEW004/// BKN056/// 13/12 Q0996
Conditions at: EKAH (TIRSTRUP (CIV/MI, DK) observed 1250 UTC 25 September 2020
Temperature: 13.0°C (55°F)
Dewpoint: 12.0°C (54°F) [RH = 94%]
Pressure (altimeter): 29.41 inches Hg (996.0 mb)
Winds: from the NE (50 degrees) at 18 MPH (16 knots; 8.2 m/s)
Visibility: missing
Ceiling: 5600 feet AGL
Clouds: few clouds at 400 feet AGL
broken clouds at 5600 feet AGL
Weather: RA  (moderate rain)

METAR text: EKAH 251220Z AUTO 06010KT 8000NDV -RA FEW005/// FEW033/// BKN060/// 13/12 Q0997
Conditions at: EKAH (TIRSTRUP (CIV/MI, DK) observed 1220 UTC 25 September 2020
Temperature: 13.0°C (55°F)
Dewpoint: 12.0°C (54°F) [RH = 94%]
Pressure (altimeter): 29.44 inches Hg (997.0 mb)
Winds: from the ENE (60 degrees) at 12 MPH (10 knots; 5.1 m/s)
Visibility: missing
Ceiling: 6000 feet AGL
Clouds: few clouds at 500 feet AGL
few clouds at 3300 feet AGL
broken clouds at 6000 feet AGL
Weather: -RA  (light rain)

METAR text: EKAH 251150Z AUTO 08009KT 9999NDV -RA OVC062/// 13/12 Q0998
Conditions at: EKAH (TIRSTRUP (CIV/MI, DK) observed 1150 UTC 25 September 2020
Temperature: 13.0°C (55°F)
Dewpoint: 12.0°C (54°F) [RH = 94%]
Pressure (altimeter): 29.47 inches Hg (998.0 mb)
Winds: from the E (80 degrees) at 10 MPH (9 knots; 4.6 m/s)
Visibility: missing
Ceiling: 6200 feet AGL
Clouds: overcast cloud deck at 6200 feet AGL
Weather: -RA  (light rain)

METAR text: EKAH 251120Z AUTO 08009KT 9999NDV -RA FEW007/// BKN036/// 13/12 Q0998
Conditions at: EKAH (TIRSTRUP (CIV/MI, DK) observed 1120 UTC 25 September 2020
Temperature: 13.0°C (55°F)
Dewpoint: 12.0°C (54°F) [RH = 94%]
Pressure (altimeter): 29.47 inches Hg (998.0 mb)
Winds: from the E (80 degrees) at 10 MPH (9 knots; 4.6 m/s)
Visibility: missing
Ceiling: 3600 feet AGL
Clouds: few clouds at 700 feet AGL
broken clouds at 3600 feet AGL
Weather: -RA  (light rain)

METAR text: EKAH 251050Z AUTO 08008KT 9000NDV -RA FEW012/// SCT015/// BKN057/// 13/12 Q0998
Conditions at: EKAH (TIRSTRUP (CIV/MI, DK) observed 1050 UTC 25 September 2020
Temperature: 13.0°C (55°F)
Dewpoint: 12.0°C (54°F) [RH = 94%]
Pressure (altimeter): 29.47 inches Hg (998.0 mb)
Winds: from the E (80 degrees) at 9 MPH (8 knots; 4.1 m/s)
Visibility: missing
Ceiling: 5700 feet AGL
Clouds: few clouds at 1200 feet AGL
scattered clouds at 1500 feet AGL
broken clouds at 5700 feet AGL
Weather: -RA  (light rain)

METAR text: EKAH 251020Z AUTO 06006KT 9999NDV -RA BKN016/// 13/11 Q0998
Conditions at: EKAH (TIRSTRUP (CIV/MI, DK) observed 1020 UTC 25 September 2020
Temperature: 13.0°C (55°F)
Dewpoint: 11.0°C (52°F) [RH = 88%]
Pressure (altimeter): 29.47 inches Hg (998.0 mb)
Winds: from the ENE (60 degrees) at 7 MPH (6 knots; 3.1 m/s)
Visibility: missing
Ceiling: 1600 feet AGL
Clouds: broken clouds at 1600 feet AGL
Weather: -RA  (light rain)

METAR text: EKAH 250950Z AUTO 07007KT 9999NDV -RA OVC045/// 13/12 Q0998
Conditions at: EKAH (TIRSTRUP (CIV/MI, DK) observed 0950 UTC 25 September 2020
Temperature: 13.0°C (55°F)
Dewpoint: 12.0°C (54°F) [RH = 94%]
Pressure (altimeter): 29.47 inches Hg (998.0 mb)
Winds: from the ENE (70 degrees) at 8 MPH (7 knots; 3.6 m/s)
Visibility: missing
Ceiling: 4500 feet AGL
Clouds: overcast cloud deck at 4500 feet AGL
Weather: -RA  (light rain)

METAR text: EKAH 250920Z 10006KT 9999 -RA FEW010 OVC045 13/12 Q0999
Conditions at: EKAH (TIRSTRUP (CIV/MI, DK) observed 0920 UTC 25 September 2020
Temperature: 13.0°C (55°F)
Dewpoint: 12.0°C (54°F) [RH = 94%]
Pressure (altimeter): 29.50 inches Hg (999.0 mb)
Winds: from the E (100 degrees) at 7 MPH (6 knots; 3.1 m/s)
Visibility: 6 or more miles (10+ km)
Ceiling: 4500 feet AGL
Clouds: few clouds at 1000 feet AGL
overcast cloud deck at 4500 feet AGL
Weather: -RA  (light rain)

METAR text: EKAH 250850Z 10007KT 080V140 5000 -RA OVC049 14/13 Q0999
Conditions at: EKAH (TIRSTRUP (CIV/MI, DK) observed 0850 UTC 25 September 2020
Temperature: 14.0°C (57°F)
Dewpoint: 13.0°C (55°F) [RH = 94%]
Pressure (altimeter): 29.50 inches Hg (999.0 mb)
Winds: from the E (100 degrees) at 8 MPH (7 knots; 3.6 m/s)
Visibility: 3 miles ( 5 km)
Ceiling: 4900 feet AGL
Clouds: overcast cloud deck at 4900 feet AGL
Weather: -RA  (light rain)

METAR text: EKAH 250820Z 10005KT 5000 -RA NSC 14/12 Q0999
Conditions at: EKAH (TIRSTRUP (CIV/MI, DK) observed 0820 UTC 25 September 2020
Temperature: 14.0°C (57°F)
Dewpoint: 12.0°C (54°F) [RH = 88%]
Pressure (altimeter): 29.50 inches Hg (999.0 mb)
Winds: from the E (100 degrees) at 6 MPH (5 knots; 2.6 m/s)
Visibility: 3 miles ( 5 km)
Ceiling: at least 12,000 feet AGL
Clouds: sky clear below 12,000 feet AGL
Weather: -RA  (light rain)

METAR text: EKAH 250750Z 10008KT 5000 -RA NSC 14/11 Q0999
Conditions at: EKAH (TIRSTRUP (CIV/MI, DK) observed 0750 UTC 25 September 2020
Temperature: 14.0°C (57°F)
Dewpoint: 11.0°C (52°F) [RH = 82%]
Pressure (altimeter): 29.50 inches Hg (999.0 mb)
Winds: from the E (100 degrees) at 9 MPH (8 knots; 4.1 m/s)
Visibility: 3 miles ( 5 km)
Ceiling: at least 12,000 feet AGL
Clouds: sky clear below 12,000 feet AGL
Weather: -RA  (light rain)

METAR text: EKAH 250720Z 11010KT 9999 FEW035 BKN053 15/12 Q0999
Conditions at: EKAH (TIRSTRUP (CIV/MI, DK) observed 0720 UTC 25 September 2020
Temperature: 15.0°C (59°F)
Dewpoint: 12.0°C (54°F) [RH = 82%]
Pressure (altimeter): 29.50 inches Hg (999.0 mb)
Winds: from the ESE (110 degrees) at 12 MPH (10 knots; 5.1 m/s)
Visibility: 6 or more miles (10+ km)
Ceiling: 5300 feet AGL
Clouds: few clouds at 3500 feet AGL
broken clouds at 5300 feet AGL
Weather: no significant weather observed at this time

METAR text: EKAH 250650Z 11010KT 070V140 9999 FEW035 BKN067 15/12 Q0999
Conditions at: EKAH (TIRSTRUP (CIV/MI, DK) observed 0650 UTC 25 September 2020
Temperature: 15.0°C (59°F)
Dewpoint: 12.0°C (54°F) [RH = 82%]
Pressure (altimeter): 29.50 inches Hg (999.0 mb)
Winds: from the ESE (110 degrees) at 12 MPH (10 knots; 5.1 m/s)
Visibility: 6 or more miles (10+ km)
Ceiling: 6700 feet AGL
Clouds: few clouds at 3500 feet AGL
broken clouds at 6700 feet AGL
Weather: no significant weather observed at this time

METAR text: EKAH 250620Z 11010KT 9999 FEW035 BKN120 15/13 Q0999
Conditions at: EKAH (TIRSTRUP (CIV/MI, DK) observed 0620 UTC 25 September 2020
Temperature: 15.0°C (59°F)
Dewpoint: 13.0°C (55°F) [RH = 88%]
Pressure (altimeter): 29.50 inches Hg (999.0 mb)
Winds: from the ESE (110 degrees) at 12 MPH (10 knots; 5.1 m/s)
Visibility: 6 or more miles (10+ km)
Ceiling: 12000 feet AGL
Clouds: few clouds at 3500 feet AGL
broken clouds at 12000 feet AGL
Weather: no significant weather observed at this time

METAR text: EKAH 250550Z 11008KT 9999 FEW035 BKN120 15/13 Q0999
Conditions at: EKAH (TIRSTRUP (CIV/MI, DK) observed 0550 UTC 25 September 2020
Temperature: 15.0°C (59°F)
Dewpoint: 13.0°C (55°F) [RH = 88%]
Pressure (altimeter): 29.50 inches Hg (999.0 mb)
Winds: from the ESE (110 degrees) at 9 MPH (8 knots; 4.1 m/s)
Visibility: 6 or more miles (10+ km)
Ceiling: 12000 feet AGL
Clouds: few clouds at 3500 feet AGL
broken clouds at 12000 feet AGL
Weather: no significant weather observed at this time

METAR text: EKAH 250520Z AUTO 12008KT 080V150 9999NDV FEW094/// BKN130/// BKN170/// 14/13 Q0999
Conditions at: EKAH (TIRSTRUP (CIV/MI, DK) observed 0520 UTC 25 September 2020
Temperature: 14.0°C (57°F)
Dewpoint: 13.0°C (55°F) [RH = 94%]
Pressure (altimeter): 29.50 inches Hg (999.0 mb)
Winds: from the ESE (120 degrees) at 9 MPH (8 knots; 4.1 m/s)
Visibility: missing
Ceiling: 13000 feet AGL
Clouds: few clouds at 9400 feet AGL
broken clouds at 13000 feet AGL
broken clouds at 17000 feet AGL
Weather: no significant weather observed at this time

METAR text: EKAH 250450Z AUTO 12006KT 9999NDV BKN170/// 14/12 Q0999
Conditions at: EKAH (TIRSTRUP (CIV/MI, DK) observed 0450 UTC 25 September 2020
Temperature: 14.0°C (57°F)
Dewpoint: 12.0°C (54°F) [RH = 88%]
Pressure (altimeter): 29.50 inches Hg (999.0 mb)
Winds: from the ESE (120 degrees) at 7 MPH (6 knots; 3.1 m/s)
Visibility: missing
Ceiling: 17000 feet AGL
Clouds: broken clouds at 17000 feet AGL
Weather: no significant weather observed at this time

METAR text: EKAH 250420Z AUTO 11005KT 9999NDV BKN180/// 13/12 Q0999
Conditions at: EKAH (TIRSTRUP (CIV/MI, DK) observed 0420 UTC 25 September 2020
Temperature: 13.0°C (55°F)
Dewpoint: 12.0°C (54°F) [RH = 94%]
Pressure (altimeter): 29.50 inches Hg (999.0 mb)
Winds: from the ESE (110 degrees) at 6 MPH (5 knots; 2.6 m/s)
Visibility: missing
Ceiling: 18000 feet AGL
Clouds: broken clouds at 18000 feet AGL
Weather: no significant weather observed at this time

METAR text: EKAH 250350Z AUTO 12004KT 9999NDV SCT180/// BKN200/// 14/12 Q1000
Conditions at: EKAH (TIRSTRUP (CIV/MI, DK) observed 0350 UTC 25 September 2020
Temperature: 14.0°C (57°F)
Dewpoint: 12.0°C (54°F) [RH = 88%]
Pressure (altimeter): 29.53 inches Hg (1000.0 mb)
Winds: from the ESE (120 degrees) at 5 MPH (4 knots; 2.1 m/s)
Visibility: missing
Ceiling: 20000 feet AGL
Clouds: scattered clouds at 18000 feet AGL
broken clouds at 20000 feet AGL
Weather: no significant weather observed at this time

METAR text: EKAH 250320Z AUTO 12005KT 090V150 9999NDV BKN190/// 13/12 Q1000
Conditions at: EKAH (TIRSTRUP (CIV/MI, DK) observed 0320 UTC 25 September 2020
Temperature: 13.0°C (55°F)
Dewpoint: 12.0°C (54°F) [RH = 94%]
Pressure (altimeter): 29.53 inches Hg (1000.0 mb)
Winds: from the ESE (120 degrees) at 6 MPH (5 knots; 2.6 m/s)
Visibility: missing
Ceiling: 19000 feet AGL
Clouds: broken clouds at 19000 feet AGL
Weather: no significant weather observed at this time

METAR text: EKAH 250250Z AUTO 12005KT 9999NDV BKN200/// 13/12 Q1000
Conditions at: EKAH (TIRSTRUP (CIV/MI, DK) observed 0250 UTC 25 September 2020
Temperature: 13.0°C (55°F)
Dewpoint: 12.0°C (54°F) [RH = 94%]
Pressure (altimeter): 29.53 inches Hg (1000.0 mb)
Winds: from the ESE (120 degrees) at 6 MPH (5 knots; 2.6 m/s)
Visibility: missing
Ceiling: 20000 feet AGL
Clouds: broken clouds at 20000 feet AGL
Weather: no significant weather observed at this time

METAR text: EKAH 250220Z AUTO 12005KT 9999NDV BKN210/// 12/11 Q1000
Conditions at: EKAH (TIRSTRUP (CIV/MI, DK) observed 0220 UTC 25 September 2020
Temperature: 12.0°C (54°F)
Dewpoint: 11.0°C (52°F) [RH = 94%]
Pressure (altimeter): 29.53 inches Hg (1000.0 mb)
Winds: from the ESE (120 degrees) at 6 MPH (5 knots; 2.6 m/s)
Visibility: missing
Ceiling: 21000 feet AGL
Clouds: broken clouds at 21000 feet AGL
Weather: no significant weather observed at this time

METAR text: EKAH 250150Z AUTO 10003KT 9999NDV BKN220/// 12/10 Q1000
Conditions at: EKAH (TIRSTRUP (CIV/MI, DK) observed 0150 UTC 25 September 2020
Temperature: 12.0°C (54°F)
Dewpoint: 10.0°C (50°F) [RH = 88%]
Pressure (altimeter): 29.53 inches Hg (1000.0 mb)
Winds: from the E (100 degrees) at 3 MPH (3 knots; 1.5 m/s)
Visibility: missing
Ceiling: 22000 feet AGL
Clouds: broken clouds at 22000 feet AGL
Weather: no significant weather observed at this time

METAR text: EKAH 250120Z AUTO 13003KT 9999NDV FEW240/// 12/10 Q1001
Conditions at: EKAH (TIRSTRUP (CIV/MI, DK) observed 0120 UTC 25 September 2020
Temperature: 12.0°C (54°F)
Dewpoint: 10.0°C (50°F) [RH = 88%]
Pressure (altimeter): 29.56 inches Hg (1001.0 mb)
Winds: from the SE (130 degrees) at 3 MPH (3 knots; 1.5 m/s)
Visibility: missing
Ceiling: at least 12,000 feet AGL
Clouds: few clouds at 24000 feet AGL
Weather: no significant weather observed at this time

METAR text: EKAH 250050Z AUTO 13003KT 9999NDV NCD 12/10 Q1001
Conditions at: EKAH (TIRSTRUP (CIV/MI, DK) observed 0050 UTC 25 September 2020
Temperature: 12.0°C (54°F)
Dewpoint: 10.0°C (50°F) [RH = 88%]
Pressure (altimeter): 29.56 inches Hg (1001.0 mb)
Winds: from the SE (130 degrees) at 3 MPH (3 knots; 1.5 m/s)
Visibility: missing
Ceiling: at least 12,000 feet AGL
Clouds: sky clear below 12,000 feet AGL
Weather: no significant weather observed at this time

METAR text: EKAH 250020Z AUTO 14003KT 9999NDV FEW240/// 12/10 Q1001
Conditions at: EKAH (TIRSTRUP (CIV/MI, DK) observed 0020 UTC 25 September 2020
Temperature: 12.0°C (54°F)
Dewpoint: 10.0°C (50°F) [RH = 88%]
Pressure (altimeter): 29.56 inches Hg (1001.0 mb)
Winds: from the SE (140 degrees) at 3 MPH (3 knots; 1.5 m/s)
Visibility: missing
Ceiling: at least 12,000 feet AGL
Clouds: few clouds at 24000 feet AGL
Weather: no significant weather observed at this time

METAR text: EKAH 242350Z AUTO 15002KT 9999NDV NCD 13/10 Q1001
Conditions at: EKAH (TIRSTRUP (CIV/MI, DK) observed 2350 UTC 24 September 2020
Temperature: 13.0°C (55°F)
Dewpoint: 10.0°C (50°F) [RH = 82%]
Pressure (altimeter): 29.56 inches Hg (1001.0 mb)
Winds: from the SSE (150 degrees) at 2 MPH (2 knots; 1.0 m/s)
Visibility: missing
Ceiling: at least 12,000 feet AGL
Clouds: sky clear below 12,000 feet AGL
Weather: no significant weather observed at this time

METAR text: EKAH 242320Z AUTO 10003KT 9999NDV SCT230/// 13/10 Q1001
Conditions at: EKAH (TIRSTRUP (CIV/MI, DK) observed 2320 UTC 24 September 2020
Temperature: 13.0°C (55°F)
Dewpoint: 10.0°C (50°F) [RH = 82%]
Pressure (altimeter): 29.56 inches Hg (1001.0 mb)
Winds: from the E (100 degrees) at 3 MPH (3 knots; 1.5 m/s)
Visibility: missing
Ceiling: at least 12,000 feet AGL
Clouds: scattered clouds at 23000 feet AGL
Weather: no significant weather observed at this time

METAR text: EKAH 242250Z AUTO 15003KT 9999NDV NCD 13/10 Q1001
Conditions at: EKAH (TIRSTRUP (CIV/MI, DK) observed 2250 UTC 24 September 2020
Temperature: 13.0°C (55°F)
Dewpoint: 10.0°C (50°F) [RH = 82%]
Pressure (altimeter): 29.56 inches Hg (1001.0 mb)
Winds: from the SSE (150 degrees) at 3 MPH (3 knots; 1.5 m/s)
Visibility: missing
Ceiling: at least 12,000 feet AGL
Clouds: sky clear below 12,000 feet AGL
Weather: no significant weather observed at this time

METAR text: EKAH 242220Z AUTO 16002KT 9999NDV NCD 12/09 Q1001
Conditions at: EKAH (TIRSTRUP (CIV/MI, DK) observed 2220 UTC 24 September 2020
Temperature: 12.0°C (54°F)
Dewpoint: 9.0°C (48°F) [RH = 82%]
Pressure (altimeter): 29.56 inches Hg (1001.0 mb)
Winds: from the SSE (160 degrees) at 2 MPH (2 knots; 1.0 m/s)
Visibility: missing
Ceiling: at least 12,000 feet AGL
Clouds: sky clear below 12,000 feet AGL
Weather: no significant weather observed at this time

METAR text: EKAH 242150Z AUTO 12003KT 9999NDV NCD 13/09 Q1001
Conditions at: EKAH (TIRSTRUP (CIV/MI, DK) observed 2150 UTC 24 September 2020
Temperature: 13.0°C (55°F)
Dewpoint: 9.0°C (48°F) [RH = 77%]
Pressure (altimeter): 29.56 inches Hg (1001.0 mb)
Winds: from the ESE (120 degrees) at 3 MPH (3 knots; 1.5 m/s)
Visibility: missing
Ceiling: at least 12,000 feet AGL
Clouds: sky clear below 12,000 feet AGL
Weather: no significant weather observed at this time

METAR text: EKAH 242120Z AUTO 13003KT 9999NDV NCD 12/09 Q1001
Conditions at: EKAH (TIRSTRUP (CIV/MI, DK) observed 2120 UTC 24 September 2020
Temperature: 12.0°C (54°F)
Dewpoint: 9.0°C (48°F) [RH = 82%]
Pressure (altimeter): 29.56 inches Hg (1001.0 mb)
Winds: from the SE (130 degrees) at 3 MPH (3 knots; 1.5 m/s)
Visibility: missing
Ceiling: at least 12,000 feet AGL
Clouds: sky clear below 12,000 feet AGL
Weather: no significant weather observed at this time

METAR text: EKAH 242050Z AUTO 14003KT 9999NDV NCD 13/09 Q1002
Conditions at: EKAH (TIRSTRUP (CIV/MI, DK) observed 2050 UTC 24 September 2020
Temperature: 13.0°C (55°F)
Dewpoint: 9.0°C (48°F) [RH = 77%]
Pressure (altimeter): 29.59 inches Hg (1002.0 mb)
Winds: from the SE (140 degrees) at 3 MPH (3 knots; 1.5 m/s)
Visibility: missing
Ceiling: at least 12,000 feet AGL
Clouds: sky clear below 12,000 feet AGL
Weather: no significant weather observed at this time

METAR text: EKAH 242020Z AUTO 14003KT 9999NDV NCD 13/09 Q1002
Conditions at: EKAH (TIRSTRUP (CIV/MI, DK) observed 2020 UTC 24 September 2020
Temperature: 13.0°C (55°F)
Dewpoint: 9.0°C (48°F) [RH = 77%]
Pressure (altimeter): 29.59 inches Hg (1002.0 mb)
Winds: from the SE (140 degrees) at 3 MPH (3 knots; 1.5 m/s)
Visibility: missing
Ceiling: at least 12,000 feet AGL
Clouds: sky clear below 12,000 feet AGL
Weather: no significant weather observed at this time

METAR text: EKAH 241950Z AUTO 16002KT 9999NDV NCD 14/09 Q1001
Conditions at: EKAH (TIRSTRUP (CIV/MI, DK) observed 1950 UTC 24 September 2020
Temperature: 14.0°C (57°F)
Dewpoint: 9.0°C (48°F) [RH = 72%]
Pressure (altimeter): 29.56 inches Hg (1001.0 mb)
Winds: from the SSE (160 degrees) at 2 MPH (2 knots; 1.0 m/s)
Visibility: missing
Ceiling: at least 12,000 feet AGL
Clouds: sky clear below 12,000 feet AGL
Weather: no significant weather observed at this time

METAR text: EKAH 241920Z AUTO 18004KT 130V260 9999NDV NCD 14/09 Q1002
Conditions at: EKAH (TIRSTRUP (CIV/MI, DK) observed 1920 UTC 24 September 2020
Temperature: 14.0°C (57°F)
Dewpoint: 9.0°C (48°F) [RH = 72%]
Pressure (altimeter): 29.59 inches Hg (1002.0 mb)
Winds: from the S (180 degrees) at 5 MPH (4 knots; 2.1 m/s)
Visibility: missing
Ceiling: at least 12,000 feet AGL
Clouds: sky clear below 12,000 feet AGL
Weather: no significant weather observed at this time

METAR text: EKAH 241850Z AUTO 20004KT 150V240 9999NDV NCD 14/09 Q1002
Conditions at: EKAH (TIRSTRUP (CIV/MI, DK) observed 1850 UTC 24 September 2020
Temperature: 14.0°C (57°F)
Dewpoint: 9.0°C (48°F) [RH = 72%]
Pressure (altimeter): 29.59 inches Hg (1002.0 mb)
Winds: from the SSW (200 degrees) at 5 MPH (4 knots; 2.1 m/s)
Visibility: missing
Ceiling: at least 12,000 feet AGL
Clouds: sky clear below 12,000 feet AGL
Weather: no significant weather observed at this time

METAR text: EKAH 241820Z AUTO 18004KT 110V250 9999NDV FEW031/// 14/09 Q1002
Conditions at: EKAH (TIRSTRUP (CIV/MI, DK) observed 1820 UTC 24 September 2020
Temperature: 14.0°C (57°F)
Dewpoint: 9.0°C (48°F) [RH = 72%]
Pressure (altimeter): 29.59 inches Hg (1002.0 mb)
Winds: from the S (180 degrees) at 5 MPH (4 knots; 2.1 m/s)
Visibility: missing
Ceiling: at least 12,000 feet AGL
Clouds: few clouds at 3100 feet AGL
Weather: no significant weather observed at this time

METAR text: EKAH 241750Z AUTO 21005KT 160V250 9999NDV NCD 14/09 Q1002
Conditions at: EKAH (TIRSTRUP (CIV/MI, DK) observed 1750 UTC 24 September 2020
Temperature: 14.0°C (57°F)
Dewpoint: 9.0°C (48°F) [RH = 72%]
Pressure (altimeter): 29.59 inches Hg (1002.0 mb)
Winds: from the SSW (210 degrees) at 6 MPH (5 knots; 2.6 m/s)
Visibility: missing
Ceiling: at least 12,000 feet AGL
Clouds: sky clear below 12,000 feet AGL
Weather: no significant weather observed at this time

METAR text: EKAH 241720Z AUTO 18004KT 140V230 9999NDV NCD 14/08 Q1001
Conditions at: EKAH (TIRSTRUP (CIV/MI, DK) observed 1720 UTC 24 September 2020
Temperature: 14.0°C (57°F)
Dewpoint: 8.0°C (46°F) [RH = 67%]
Pressure (altimeter): 29.56 inches Hg (1001.0 mb)
Winds: from the S (180 degrees) at 5 MPH (4 knots; 2.1 m/s)
Visibility: missing
Ceiling: at least 12,000 feet AGL
Clouds: sky clear below 12,000 feet AGL
Weather: no significant weather observed at this time

METAR text: EKAH 241650Z AUTO 21004KT 160V260 9999NDV NCD 15/07 Q1001
Conditions at: EKAH (TIRSTRUP (CIV/MI, DK) observed 1650 UTC 24 September 2020
Temperature: 15.0°C (59°F)
Dewpoint: 7.0°C (45°F) [RH = 59%]
Pressure (altimeter): 29.56 inches Hg (1001.0 mb)
Winds: from the SSW (210 degrees) at 5 MPH (4 knots; 2.1 m/s)
Visibility: missing
Ceiling: at least 12,000 feet AGL
Clouds: sky clear below 12,000 feet AGL
Weather: no significant weather observed at this time

METAR text: EKAH 241620Z AUTO 21006KT 160V260 9999NDV FEW060/// 16/08 Q1001
Conditions at: EKAH (TIRSTRUP (CIV/MI, DK) observed 1620 UTC 24 September 2020
Temperature: 16.0°C (61°F)
Dewpoint: 8.0°C (46°F) [RH = 59%]
Pressure (altimeter): 29.56 inches Hg (1001.0 mb)
Winds: from the SSW (210 degrees) at 7 MPH (6 knots; 3.1 m/s)
Visibility: missing
Ceiling: at least 12,000 feet AGL
Clouds: few clouds at 6000 feet AGL
Weather: no significant weather observed at this time

METAR text: EKAH 241550Z AUTO 21006G16KT 150V270 9999NDV SCT040/// 17/07 Q1000
Conditions at: EKAH (TIRSTRUP (CIV/MI, DK) observed 1550 UTC 24 September 2020
Temperature: 17.0°C (63°F)
Dewpoint: 7.0°C (45°F) [RH = 52%]
Pressure (altimeter): 29.53 inches Hg (1000.0 mb)
Winds: from the SSW (210 degrees) at 7 MPH (6 knots; 3.1 m/s)
gusting to 18 MPH (16 knots; 8.2 m/s)
Visibility: missing
Ceiling: at least 12,000 feet AGL
Clouds: scattered clouds at 4000 feet AGL
Weather: no significant weather observed at this time

METAR text: EKAH 241520Z AUTO 21007KT 140V270 9999NDV FEW058/// 17/09 Q1000
Conditions at: EKAH (TIRSTRUP (CIV/MI, DK) observed 1520 UTC 24 September 2020
Temperature: 17.0°C (63°F)
Dewpoint: 9.0°C (48°F) [RH = 59%]
Pressure (altimeter): 29.53 inches Hg (1000.0 mb)
Winds: from the SSW (210 degrees) at 8 MPH (7 knots; 3.6 m/s)
Visibility: missing
Ceiling: at least 12,000 feet AGL
Clouds: few clouds at 5800 feet AGL
Weather: no significant weather observed at this time

METAR text: EKAH 241450Z AUTO 23007G17KT 170V300 9999NDV FEW052/// 18/10 Q1000
Conditions at: EKAH (TIRSTRUP (CIV/MI, DK) observed 1450 UTC 24 September 2020
Temperature: 18.0°C (64°F)
Dewpoint: 10.0°C (50°F) [RH = 59%]
Pressure (altimeter): 29.53 inches Hg (1000.0 mb)
Winds: from the SW (230 degrees) at 8 MPH (7 knots; 3.6 m/s)
gusting to 20 MPH (17 knots; 8.7 m/s)
Visibility: missing
Ceiling: at least 12,000 feet AGL
Clouds: few clouds at 5200 feet AGL
Weather: no significant weather observed at this time

METAR text: EKAH 241420Z AUTO 22007G17KT 160V260 9999NDV FEW037/// SCT051/// 18/09 Q1000
Conditions at: EKAH (TIRSTRUP (CIV/MI, DK) observed 1420 UTC 24 September 2020
Temperature: 18.0°C (64°F)
Dewpoint: 9.0°C (48°F) [RH = 56%]
Pressure (altimeter): 29.53 inches Hg (1000.0 mb)
Winds: from the SW (220 degrees) at 8 MPH (7 knots; 3.6 m/s)
gusting to 20 MPH (17 knots; 8.7 m/s)
Visibility: missing
Ceiling: at least 12,000 feet AGL
Clouds: few clouds at 3700 feet AGL
scattered clouds at 5100 feet AGL
Weather: no significant weather observed at this time

METAR text: EKAH 241350Z AUTO 22006KT 150V280 9999NDV SCT040/// 18/09 Q1000
Conditions at: EKAH (TIRSTRUP (CIV/MI, DK) observed 1350 UTC 24 September 2020
Temperature: 18.0°C (64°F)
Dewpoint: 9.0°C (48°F) [RH = 56%]
Pressure (altimeter): 29.53 inches Hg (1000.0 mb)
Winds: from the SW (220 degrees) at 7 MPH (6 knots; 3.1 m/s)
Visibility: missing
Ceiling: at least 12,000 feet AGL
Clouds: scattered clouds at 4000 feet AGL
Weather: no significant weather observed at this time

METAR text: EKAH 241320Z AUTO 23008KT 170V280 9999NDV FEW044/// 18/09 Q0999
Conditions at: EKAH (TIRSTRUP (CIV/MI, DK) observed 1320 UTC 24 September 2020
Temperature: 18.0°C (64°F)
Dewpoint: 9.0°C (48°F) [RH = 56%]
Pressure (altimeter): 29.50 inches Hg (999.0 mb)
Winds: from the SW (230 degrees) at 9 MPH (8 knots; 4.1 m/s)
Visibility: missing
Ceiling: at least 12,000 feet AGL
Clouds: few clouds at 4400 feet AGL
Weather: no significant weather observed at this time

METAR text: EKAH 241250Z AUTO 23011G22KT 180V270 9999NDV SCT047/// 18/09 Q0999
Conditions at: EKAH (TIRSTRUP (CIV/MI, DK) observed 1250 UTC 24 September 2020
Temperature: 18.0°C (64°F)
Dewpoint: 9.0°C (48°F) [RH = 56%]
Pressure (altimeter): 29.50 inches Hg (999.0 mb)
Winds: from the SW (230 degrees) at 13 MPH (11 knots; 5.7 m/s)
gusting to 25 MPH (22 knots; 11.3 m/s)
Visibility: missing
Ceiling: at least 12,000 feet AGL
Clouds: scattered clouds at 4700 feet AGL
Weather: no significant weather observed at this time

METAR text: EKAH 241220Z AUTO 23011G24KT 190V260 9999NDV SCT044/// 19/08 Q0999
Conditions at: EKAH (TIRSTRUP (CIV/MI, DK) observed 1220 UTC 24 September 2020
Temperature: 19.0°C (66°F)
Dewpoint: 8.0°C (46°F) [RH = 49%]
Pressure (altimeter): 29.50 inches Hg (999.0 mb)
Winds: from the SW (230 degrees) at 13 MPH (11 knots; 5.7 m/s)
gusting to 28 MPH (24 knots; 12.3 m/s)
Visibility: missing
Ceiling: at least 12,000 feet AGL
Clouds: scattered clouds at 4400 feet AGL
Weather: no significant weather observed at this time

METAR text: EKAH 241150Z AUTO 24009G20KT 180V280 9999NDV FEW041/// 18/08 Q0999
Conditions at: EKAH (TIRSTRUP (CIV/MI, DK) observed 1150 UTC 24 September 2020
Temperature: 18.0°C (64°F)
Dewpoint: 8.0°C (46°F) [RH = 52%]
Pressure (altimeter): 29.50 inches Hg (999.0 mb)
Winds: from the WSW (240 degrees) at 10 MPH (9 knots; 4.6 m/s)
gusting to 23 MPH (20 knots; 10.3 m/s)
Visibility: missing
Ceiling: at least 12,000 feet AGL
Clouds: few clouds at 4100 feet AGL
Weather: no significant weather observed at this time

METAR text: EKAH 241120Z AUTO 22012G24KT 180V270 9999NDV FEW040/// 18/08 Q0998
Conditions at: EKAH (TIRSTRUP (CIV/MI, DK) observed 1120 UTC 24 September 2020
Temperature: 18.0°C (64°F)
Dewpoint: 8.0°C (46°F) [RH = 52%]
Pressure (altimeter): 29.47 inches Hg (998.0 mb)
Winds: from the SW (220 degrees) at 14 MPH (12 knots; 6.2 m/s)
gusting to 28 MPH (24 knots; 12.3 m/s)
Visibility: missing
Ceiling: at least 12,000 feet AGL
Clouds: few clouds at 4000 feet AGL
Weather: no significant weather observed at this time

METAR text: EKAH 241050Z AUTO 24014G27KT 180V270 9999NDV NCD 18/09 Q0998
Conditions at: EKAH (TIRSTRUP (CIV/MI, DK) observed 1050 UTC 24 September 2020
Temperature: 18.0°C (64°F)
Dewpoint: 9.0°C (48°F) [RH = 56%]
Pressure (altimeter): 29.47 inches Hg (998.0 mb)
Winds: from the WSW (240 degrees) at 16 MPH (14 knots; 7.2 m/s)
gusting to 31 MPH (27 knots; 13.9 m/s)
Visibility: missing
Ceiling: at least 12,000 feet AGL
Clouds: sky clear below 12,000 feet AGL
Weather: no significant weather observed at this time

METAR text: EKAH 241020Z 23010G20KT 180V290 9999 FEW035 18/10 Q0997
Conditions at: EKAH (TIRSTRUP (CIV/MI, DK) observed 1020 UTC 24 September 2020
Temperature: 18.0°C (64°F)
Dewpoint: 10.0°C (50°F) [RH = 59%]
Pressure (altimeter): 29.44 inches Hg (997.0 mb)
Winds: from the SW (230 degrees) at 12 MPH (10 knots; 5.1 m/s)
gusting to 23 MPH (20 knots; 10.3 m/s)
Visibility: 6 or more miles (10+ km)
Ceiling: at least 12,000 feet AGL
Clouds: few clouds at 3500 feet AGL
Weather: no significant weather observed at this time

METAR text: EKAH 240950Z 24011G24KT 190V280 9999 FEW035 17/10 Q0997
Conditions at: EKAH (TIRSTRUP (CIV/MI, DK) observed 0950 UTC 24 September 2020
Temperature: 17.0°C (63°F)
Dewpoint: 10.0°C (50°F) [RH = 63%]
Pressure (altimeter): 29.44 inches Hg (997.0 mb)
Winds: from the WSW (240 degrees) at 13 MPH (11 knots; 5.7 m/s)
gusting to 28 MPH (24 knots; 12.3 m/s)
Visibility: 6 or more miles (10+ km)
Ceiling: at least 12,000 feet AGL
Clouds: few clouds at 3500 feet AGL
Weather: no significant weather observed at this time

METAR text: EKAH 240920Z 23013G29KT 170V290 9999 FEW030 17/10 Q0997
Conditions at: EKAH (TIRSTRUP (CIV/MI, DK) observed 0920 UTC 24 September 2020
Temperature: 17.0°C (63°F)
Dewpoint: 10.0°C (50°F) [RH = 63%]
Pressure (altimeter): 29.44 inches Hg (997.0 mb)
Winds: from the SW (230 degrees) at 15 MPH (13 knots; 6.7 m/s)
gusting to 33 MPH (29 knots; 14.9 m/s)
Visibility: 6 or more miles (10+ km)
Ceiling: at least 12,000 feet AGL
Clouds: few clouds at 3000 feet AGL
Weather: no significant weather observed at this time

METAR text: EKAH 240850Z 23013G30KT 150V280 9999 SCT040 16/11 Q0996
Conditions at: EKAH (TIRSTRUP (CIV/MI, DK) observed 0850 UTC 24 September 2020
Temperature: 16.0°C (61°F)
Dewpoint: 11.0°C (52°F) [RH = 72%]
Pressure (altimeter): 29.41 inches Hg (996.0 mb)
Winds: from the SW (230 degrees) at 15 MPH (13 knots; 6.7 m/s)
gusting to 34 MPH (30 knots; 15.4 m/s)
Visibility: 6 or more miles (10+ km)
Ceiling: at least 12,000 feet AGL
Clouds: scattered clouds at 4000 feet AGL
Weather: no significant weather observed at this time

METAR text: EKAH 240820Z 21009G22KT 140V260 9999 FEW020 SCT058 17/14 Q0995
Conditions at: EKAH (TIRSTRUP (CIV/MI, DK) observed 0820 UTC 24 September 2020
Temperature: 17.0°C (63°F)
Dewpoint: 14.0°C (57°F) [RH = 82%]
Pressure (altimeter): 29.38 inches Hg (995.0 mb)
Winds: from the SSW (210 degrees) at 10 MPH (9 knots; 4.6 m/s)
gusting to 25 MPH (22 knots; 11.3 m/s)
Visibility: 6 or more miles (10+ km)
Ceiling: at least 12,000 feet AGL
Clouds: few clouds at 2000 feet AGL
scattered clouds at 5800 feet AGL
Weather: no significant weather observed at this time

METAR text: EKAH 240750Z 20009G20KT 150V250 9999 FEW016 SCT022 17/14 Q0995
Conditions at: EKAH (TIRSTRUP (CIV/MI, DK) observed 0750 UTC 24 September 2020
Temperature: 17.0°C (63°F)
Dewpoint: 14.0°C (57°F) [RH = 82%]
Pressure (altimeter): 29.38 inches Hg (995.0 mb)
Winds: from the SSW (200 degrees) at 10 MPH (9 knots; 4.6 m/s)
gusting to 23 MPH (20 knots; 10.3 m/s)
Visibility: 6 or more miles (10+ km)
Ceiling: at least 12,000 feet AGL
Clouds: few clouds at 1600 feet AGL
scattered clouds at 2200 feet AGL
Weather: no significant weather observed at this time

METAR text: EKAH 240720Z 18009G19KT 100V240 9999 BKN016 FEW022CB 16/14 Q0994
Conditions at: EKAH (TIRSTRUP (CIV/MI, DK) observed 0720 UTC 24 September 2020
Temperature: 16.0°C (61°F)
Dewpoint: 14.0°C (57°F) [RH = 88%]
Pressure (altimeter): 29.35 inches Hg (994.0 mb)
Winds: from the S (180 degrees) at 10 MPH (9 knots; 4.6 m/s)
gusting to 22 MPH (19 knots; 9.8 m/s)
Visibility: 6 or more miles (10+ km)
Ceiling: 1600 feet AGL
Clouds: broken clouds at 1600 feet AGL
few clouds at 2200 feet AGL
Weather: no significant weather observed at this time

Forecast for: EKAH (TIRSTRUP (CIV/MI, DK)
Text: TAF EKAH 251714Z 2518/2618 30008KT 9999 BKN015
Forecast period: 1800 UTC 25 September 2020 to 1800 UTC 26 September 2020
Forecast type: FROM: standard forecast or significant change
Winds: from the WNW (300 degrees) at 9 MPH (8 knots; 4.1 m/s)
Visibility: 6 or more miles (10+ km)
Ceiling: 1500 feet AGL
Clouds: broken clouds at 1500 feet AGL
Weather: no significant weather forecast for this period
Text: TEMPO 2518/2521 4000 RA BKN005
Forecast period: 1800 to 2100 UTC 25 September 2020
Forecast type: TEMPORARY: The following changes expected for less than half the time period
Visibility: 2.49 miles (4.01 km)
Ceiling: 500 feet AGL
Clouds: broken clouds at 500 feet AGL
Weather: RA  (moderate rain)
Text: TEMPO 2521/2606 3000 BR BKN003
Forecast period: 2100 UTC 25 September 2020 to 0600 UTC 26 September 2020
Forecast type: TEMPORARY: The following changes expected for less than half the time period
Visibility: 1.86 miles (2.99 km)
Ceiling: 300 feet AGL
Clouds: broken clouds at 300 feet AGL
Weather: BR  (mist)
Text: TEMPO 2606/2612 BKN008
Forecast period: 0600 to 1200 UTC 26 September 2020
Forecast type: TEMPORARY: The following changes expected for less than half the time period
Visibility: missing
Ceiling: 800 feet AGL
Clouds: broken clouds at 800 feet AGL
Weather: no significant weather forecast for this period